Time,TemperatureF,DewpointF,PressureIn,WindDirection,WindDirectionDegrees,WindSpeedMPH,WindSpeedGustMPH,Humidity,HourlyPrecipIn,Conditions,Clouds,dailyrainin,SoftwareType,DateUTC
2013-09-19 00:06:00,61.5,54.0,30.17,SW,222,1.0,2.0,75,0.00,,,0.00,weatherlink.com 1.10,2013-09-19 04:06:00,
2013-09-19 00:21:00,61.3,54.0,30.17,SW,226,1.0,2.0,76,0.00,,,0.00,weatherlink.com 1.10,2013-09-19 04:21:00,
2013-09-19 00:36:00,61.4,54.0,30.17,WSW,253,2.0,3.0,76,0.00,,,0.00,weatherlink.com 1.10,2013-09-19 04:36:00,
2013-09-19 00:51:00,60.8,55.0,30.16,SW,228,0.0,2.0,81,0.00,,,0.00,weatherlink.com 1.10,2013-09-19 04:51:00,
2013-09-19 01:06:00,60.7,56.0,30.16,WSW,250,1.0,1.0,83,0.00,,,0.00,weatherlink.com 1.10,2013-09-19 05:06:00,
2013-09-19 01:21:00,60.8,56.0,30.17,WSW,254,0.0,1.0,84,0.00,,,0.00,weatherlink.com 1.10,2013-09-19 05:21:00,
2013-09-19 01:36:00,60.6,55.0,30.16,WSW,245,0.0,0.0,81,0.00,,,0.00,weatherlink.com 1.10,2013-09-19 05:36:00,
2013-09-19 01:51:00,60.3,55.0,30.16,WSW,238,0.0,0.0,83,0.00,,,0.00,weatherlink.com 1.10,2013-09-19 05:51:00,
2013-09-19 02:06:00,59.7,55.0,30.16,WSW,238,0.0,1.0,85,0.00,,,0.00,weatherlink.com 1.10,2013-09-19 06:06:00,
2013-09-19 02:21:00,59.2,55.0,30.15,WSW,242,0.0,0.0,86,0.00,,,0.00,weatherlink.com 1.10,2013-09-19 06:21:00,
2013-09-19 02:36:00,59.0,55.0,30.16,WSW,249,0.0,0.0,87,0.00,,,0.00,weatherlink.com 1.10,2013-09-19 06:36:00,
2013-09-19 03:06:00,59.2,54.0,30.15,West,262,0.0,0.0,82,0.00,,,0.00,weatherlink.com 1.10,2013-09-19 07:06:00,
2013-09-19 03:21:00,59.3,54.0,30.14,West,269,0.0,1.0,83,0.00,,,0.00,weatherlink.com 1.10,2013-09-19 07:21:00,
2013-09-19 03:36:00,59.2,55.0,30.14,WNW,295,2.0,2.0,85,0.00,,,0.00,weatherlink.com 1.10,2013-09-19 07:36:00,
2013-09-19 03:51:00,58.8,54.0,30.14,WNW,290,1.0,3.0,85,0.00,,,0.00,weatherlink.com 1.10,2013-09-19 07:51:00,
2013-09-19 04:07:00,58.2,54.0,30.14,WSW,252,0.0,1.0,85,0.00,,,0.00,weatherlink.com 1.10,2013-09-19 08:07:00,
2013-09-19 04:22:00,57.7,54.0,30.14,WSW,240,0.0,1.0,86,0.00,,,0.00,weatherlink.com 1.10,2013-09-19 08:22:00,
2013-09-19 04:37:00,57.6,54.0,30.14,West,266,0.0,0.0,87,0.00,,,0.00,weatherlink.com 1.10,2013-09-19 08:37:00,
2013-09-19 04:52:00,57.6,54.0,30.14,West,266,0.0,1.0,87,0.00,,,0.00,weatherlink.com 1.10,2013-09-19 08:52:00,
2013-09-19 05:07:00,57.6,54.0,30.14,West,277,0.0,1.0,87,0.00,,,0.00,weatherlink.com 1.10,2013-09-19 09:07:00,
2013-09-19 05:22:00,57.4,54.0,30.14,WNW,282,0.0,0.0,87,0.00,,,0.00,weatherlink.com 1.10,2013-09-19 09:22:00,
2013-09-19 05:37:00,57.4,54.0,30.14,SW,233,1.0,1.0,87,0.00,,,0.00,weatherlink.com 1.10,2013-09-19 09:37:00,
2013-09-19 05:52:00,57.0,53.0,30.14,WSW,253,0.0,2.0,87,0.00,,,0.00,weatherlink.com 1.10,2013-09-19 09:52:00,
2013-09-19 06:07:00,57.5,54.0,30.15,WNW,285,1.0,3.0,88,0.00,,,0.00,weatherlink.com 1.10,2013-09-19 10:07:00,
2013-09-19 06:22:00,57.3,54.0,30.15,West,270,0.0,2.0,87,0.00,,,0.00,weatherlink.com 1.10,2013-09-19 10:22:00,
2013-09-19 06:37:00,56.9,53.0,30.15,WSW,249,0.0,0.0,88,0.00,,,0.00,weatherlink.com 1.10,2013-09-19 10:37:00,
2013-09-19 06:52:00,56.6,54.0,30.15,WSW,248,0.0,0.0,89,0.00,,,0.00,weatherlink.com 1.10,2013-09-19 10:52:00,
2013-09-19 07:07:00,56.9,53.0,30.16,WSW,249,0.0,0.0,88,0.00,,,0.00,weatherlink.com 1.10,2013-09-19 11:07:00,
2013-09-19 07:22:00,58.3,55.0,30.16,WSW,248,0.0,0.0,87,0.00,,,0.00,weatherlink.com 1.10,2013-09-19 11:22:00,
2013-09-19 07:37:00,62.2,57.0,30.16,SE,138,0.0,0.0,82,0.00,,,0.00,weatherlink.com 1.10,2013-09-19 11:37:00,
2013-09-19 07:52:00,64.5,57.0,30.16,SSE,149,0.0,0.0,77,0.00,,,0.00,weatherlink.com 1.10,2013-09-19 11:52:00,
2013-09-19 08:07:00,64.1,56.0,30.15,SE,145,2.0,3.0,76,0.00,,,0.00,weatherlink.com 1.10,2013-09-19 12:07:00,
2013-09-19 08:22:00,63.0,56.0,30.15,SSW,201,0.0,3.0,79,0.00,,,0.00,weatherlink.com 1.10,2013-09-19 12:22:00,
2013-09-19 08:37:00,63.1,57.0,30.15,SW,235,1.0,2.0,79,0.00,,,0.00,weatherlink.com 1.10,2013-09-19 12:37:00,
2013-09-19 08:52:00,64.2,57.0,30.15,West,260,0.0,3.0,77,0.00,,,0.00,weatherlink.com 1.10,2013-09-19 12:52:00,
2013-09-19 09:07:00,64.1,57.0,30.15,NW,311,1.0,5.0,77,0.00,,,0.00,weatherlink.com 1.10,2013-09-19 13:07:00,
2013-09-19 09:22:00,64.2,57.0,30.16,SSW,207,1.0,7.0,77,0.00,,,0.00,weatherlink.com 1.10,2013-09-19 13:22:00,
2013-09-19 09:37:00,64.3,57.0,30.16,SW,225,4.0,7.0,76,0.00,,,0.00,weatherlink.com 1.10,2013-09-19 13:37:00,
2013-09-19 09:52:00,65.0,57.0,30.16,SW,224,5.0,7.0,76,0.00,,,0.00,weatherlink.com 1.10,2013-09-19 13:52:00,
2013-09-19 10:07:00,65.3,57.0,30.15,West,271,4.0,8.0,74,0.00,,,0.00,weatherlink.com 1.10,2013-09-19 14:07:00,
2013-09-19 10:22:00,66.3,57.0,30.16,SW,225,3.0,6.0,73,0.00,,,0.00,weatherlink.com 1.10,2013-09-19 14:22:00,
2013-09-19 10:37:00,66.8,56.0,30.16,West,274,3.0,10.0,68,0.00,,,0.00,weatherlink.com 1.10,2013-09-19 14:37:00,
2013-09-19 10:52:00,67.5,56.0,30.16,SW,231,4.0,11.0,66,0.00,,,0.00,weatherlink.com 1.10,2013-09-19 14:52:00,
2013-09-19 11:07:00,67.7,55.0,30.16,WNW,284,4.0,9.0,65,0.00,,,0.00,weatherlink.com 1.10,2013-09-19 15:07:00,
2013-09-19 11:22:00,68.3,54.0,30.16,WSW,249,2.0,7.0,61,0.00,,,0.00,weatherlink.com 1.10,2013-09-19 15:22:00,
2013-09-19 11:37:00,69.6,54.0,30.15,South,188,5.0,9.0,59,0.00,,,0.00,weatherlink.com 1.10,2013-09-19 15:37:00,
2013-09-19 11:52:00,68.1,56.0,30.14,SE,134,1.0,10.0,65,0.00,,,0.00,weatherlink.com 1.10,2013-09-19 15:52:00,
2013-09-19 12:07:00,68.0,59.0,30.14,SE,124,7.0,13.0,73,0.00,,,0.00,weatherlink.com 1.10,2013-09-19 16:07:00,
2013-09-19 12:22:00,67.6,59.0,30.14,ESE,112,11.0,14.0,75,0.00,,,0.00,weatherlink.com 1.10,2013-09-19 16:22:00,
2013-09-19 12:37:00,67.5,59.0,30.13,SE,124,11.0,17.0,75,0.00,,,0.00,weatherlink.com 1.10,2013-09-19 16:37:00,
2013-09-19 12:52:00,67.8,59.0,30.13,ESE,117,9.0,13.0,73,0.00,,,0.00,weatherlink.com 1.10,2013-09-19 16:52:00,
2013-09-19 13:08:00,68.3,58.0,30.12,SE,137,9.0,14.0,70,0.00,,,0.00,weatherlink.com 1.10,2013-09-19 17:08:00,
2013-09-19 13:22:00,68.2,57.0,30.12,ESE,122,12.0,14.0,68,0.00,,,0.00,weatherlink.com 1.10,2013-09-19 17:22:00,
2013-09-19 13:37:00,68.6,58.0,30.11,SE,141,9.0,11.0,70,0.00,,,0.00,weatherlink.com 1.10,2013-09-19 17:37:00,
2013-09-19 13:53:00,68.5,57.0,30.10,ESE,108,10.0,12.0,68,0.00,,,0.00,weatherlink.com 1.10,2013-09-19 17:53:00,
2013-09-19 14:08:00,69.0,58.0,30.10,ESE,107,7.0,12.0,69,0.00,,,0.00,weatherlink.com 1.10,2013-09-19 18:08:00,
2013-09-19 14:23:00,69.3,58.0,30.09,SE,139,9.0,12.0,67,0.00,,,0.00,weatherlink.com 1.10,2013-09-19 18:23:00,
2013-09-19 14:38:00,69.5,58.0,30.09,ESE,106,7.0,13.0,67,0.00,,,0.00,weatherlink.com 1.10,2013-09-19 18:38:00,
2013-09-19 14:53:00,69.8,58.0,30.09,ESE,111,7.0,11.0,67,0.00,,,0.00,weatherlink.com 1.10,2013-09-19 18:53:00,
2013-09-19 15:08:00,69.8,58.0,30.08,ESE,113,9.0,12.0,66,0.00,,,0.00,weatherlink.com 1.10,2013-09-19 19:08:00,
2013-09-19 15:23:00,70.2,58.0,30.08,SE,124,11.0,14.0,66,0.00,,,0.00,weatherlink.com 1.10,2013-09-19 19:23:00,
2013-09-19 15:38:00,70.3,58.0,30.07,ESE,120,8.0,13.0,66,0.00,,,0.00,weatherlink.com 1.10,2013-09-19 19:38:00,
2013-09-19 15:53:00,70.6,59.0,30.07,SSE,151,9.0,13.0,66,0.00,,,0.00,weatherlink.com 1.10,2013-09-19 19:53:00,
2013-09-19 16:08:00,70.9,59.0,30.07,SE,127,10.0,13.0,66,0.00,,,0.00,weatherlink.com 1.10,2013-09-19 20:08:00,
2013-09-19 16:23:00,70.9,58.0,30.06,SSE,149,8.0,12.0,65,0.00,,,0.00,weatherlink.com 1.10,2013-09-19 20:23:00,
2013-09-19 16:38:00,70.9,58.0,30.06,SE,135,9.0,13.0,65,0.00,,,0.00,weatherlink.com 1.10,2013-09-19 20:38:00,
2013-09-19 16:53:00,71.1,59.0,30.06,SSE,159,9.0,12.0,65,0.00,,,0.00,weatherlink.com 1.10,2013-09-19 20:53:00,
2013-09-19 17:08:00,71.5,59.0,30.06,South,169,6.0,13.0,64,0.00,,,0.00,weatherlink.com 1.10,2013-09-19 21:08:00,
2013-09-19 17:23:00,71.9,59.0,30.06,SE,145,4.0,10.0,63,0.00,,,0.00,weatherlink.com 1.10,2013-09-19 21:23:00,
2013-09-19 17:38:00,71.9,58.0,30.06,ESE,122,4.0,11.0,62,0.00,,,0.00,weatherlink.com 1.10,2013-09-19 21:38:00,
2013-09-19 17:53:00,72.2,59.0,30.06,SE,138,8.0,9.0,63,0.00,,,0.00,weatherlink.com 1.10,2013-09-19 21:53:00,
2013-09-19 18:08:00,72.2,58.0,30.06,SE,144,5.0,9.0,62,0.00,,,0.00,weatherlink.com 1.10,2013-09-19 22:08:00,
2013-09-19 18:23:00,72.1,59.0,30.06,South,190,2.0,9.0,64,0.00,,,0.00,weatherlink.com 1.10,2013-09-19 22:23:00,
2013-09-19 18:38:00,71.7,60.0,30.06,South,183,3.0,7.0,66,0.00,,,0.00,weatherlink.com 1.10,2013-09-19 22:38:00,
2013-09-19 18:53:00,70.6,60.0,30.06,SSE,152,3.0,6.0,68,0.00,,,0.00,weatherlink.com 1.10,2013-09-19 22:53:00,
2013-09-19 19:08:00,69.9,60.0,30.06,SSW,197,4.0,6.0,70,0.00,,,0.00,weatherlink.com 1.10,2013-09-19 23:08:00,
2013-09-19 19:23:00,69.5,60.0,30.07,SE,145,1.0,6.0,71,0.00,,,0.00,weatherlink.com 1.10,2013-09-19 23:23:00,
2013-09-19 19:38:00,69.3,60.0,30.07,SSE,160,2.0,6.0,72,0.00,,,0.00,weatherlink.com 1.10,2013-09-19 23:38:00,
2013-09-19 19:53:00,69.1,60.0,30.07,SE,146,1.0,6.0,73,0.00,,,0.00,weatherlink.com 1.10,2013-09-19 23:53:00,
2013-09-19 20:08:00,68.8,60.0,30.07,South,176,2.0,5.0,74,0.00,,,0.00,weatherlink.com 1.10,2013-09-20 00:08:00,
2013-09-19 20:23:00,68.6,60.0,30.07,SE,141,0.0,3.0,74,0.00,,,0.00,weatherlink.com 1.10,2013-09-20 00:23:00,
2013-09-19 20:38:00,68.4,61.0,30.07,SSE,159,0.0,3.0,76,0.00,,,0.00,weatherlink.com 1.10,2013-09-20 00:38:00,
2013-09-19 20:53:00,68.2,60.0,30.07,South,191,1.0,3.0,76,0.00,,,0.00,weatherlink.com 1.10,2013-09-20 00:53:00,
2013-09-19 21:08:00,67.8,61.0,30.07,SSW,197,0.0,3.0,78,0.00,,,0.00,weatherlink.com 1.10,2013-09-20 01:08:00,
2013-09-19 21:23:00,67.5,60.0,30.07,West,262,3.0,3.0,78,0.00,,,0.00,weatherlink.com 1.10,2013-09-20 01:23:00,
2013-09-19 21:38:00,67.4,61.0,30.07,WSW,249,1.0,2.0,79,0.00,,,0.00,weatherlink.com 1.10,2013-09-20 01:38:00,
2013-09-19 21:53:00,66.8,60.0,30.06,SW,219,0.0,3.0,80,0.00,,,0.00,weatherlink.com 1.10,2013-09-20 01:53:00,
2013-09-19 22:08:00,66.5,60.0,30.06,SW,222,0.0,4.0,79,0.00,,,0.00,weatherlink.com 1.10,2013-09-20 02:08:00,
2013-09-19 22:23:00,66.2,58.0,30.06,SW,215,1.0,3.0,76,0.00,,,0.00,weatherlink.com 1.10,2013-09-20 02:23:00,
2013-09-19 22:38:00,65.9,58.0,30.06,SSW,210,1.0,2.0,75,0.00,,,0.00,weatherlink.com 1.10,2013-09-20 02:38:00,
2013-09-19 22:53:00,65.8,58.0,30.05,SSW,201,1.0,3.0,75,0.00,,,0.00,weatherlink.com 1.10,2013-09-20 02:53:00,
2013-09-19 23:08:00,65.5,57.0,30.05,WSW,255,1.0,3.0,75,0.00,,,0.00,weatherlink.com 1.10,2013-09-20 03:08:00,
2013-09-19 23:23:00,65.0,58.0,30.05,SW,219,0.0,3.0,77,0.00,,,0.00,weatherlink.com 1.10,2013-09-20 03:23:00,
2013-09-19 23:38:00,64.3,57.0,30.05,SW,217,1.0,2.0,76,0.00,,,0.00,weatherlink.com 1.10,2013-09-20 03:38:00,
2013-09-19 23:53:00,63.9,57.0,30.05,SW,215,0.0,3.0,77,0.00,,,0.00,weatherlink.com 1.10,2013-09-20 03:53:00,